createdAt,value
2022-11-03T00:01:10.318Z,14.08
2022-11-03T00:03:38.303Z,14.02
2022-11-03T00:06:06.343Z,13.95
2022-11-03T00:08:38.657Z,13.91
2022-11-03T00:11:07.950Z,13.72
2022-11-03T00:13:36.402Z,13.75
2022-11-03T00:16:06.445Z,13.74
2022-11-03T00:18:34.423Z,13.71
2022-11-03T00:21:03.084Z,13.63
2022-11-03T00:23:31.903Z,13.62
2022-11-03T00:26:07.368Z,13.45
2022-11-03T00:28:35.628Z,13.48
2022-11-03T00:31:07.088Z,13.40
2022-11-03T00:33:35.082Z,13.42
2022-11-03T00:36:03.042Z,13.40
2022-11-03T00:38:31.021Z,13.36
2022-11-03T00:41:00.719Z,13.30
2022-11-03T00:43:29.312Z,13.24
2022-11-03T00:45:57.253Z,13.17
2022-11-03T00:48:32.813Z,13.10
2022-11-03T00:51:04.831Z,13.03
2022-11-03T00:53:32.936Z,12.94
2022-11-03T00:56:00.999Z,12.83
2022-11-03T00:58:29.103Z,12.82
2022-11-03T01:01:01.394Z,12.76
2022-11-03T01:03:31.110Z,12.73
2022-11-03T01:06:16.274Z,12.68
2022-11-03T01:08:44.252Z,12.63
2022-11-03T01:11:30.542Z,12.64
2022-11-03T01:13:58.570Z,12.55
2022-11-03T01:16:26.544Z,12.58
2022-11-03T01:18:56.064Z,12.56
2022-11-03T01:21:24.145Z,12.52
2022-11-03T01:23:52.118Z,12.48
2022-11-03T01:26:20.122Z,12.44
2022-11-03T01:28:48.302Z,12.38
2022-11-03T01:31:17.759Z,12.35
2022-11-03T01:33:46.606Z,12.27
2022-11-03T01:36:16.171Z,12.28
2022-11-03T01:38:44.205Z,12.26
2022-11-03T01:41:14.601Z,12.21
2022-11-03T01:43:42.843Z,12.12
2022-11-03T01:46:16.671Z,11.99
2022-11-03T01:48:47.883Z,12.02
2022-11-03T01:51:17.625Z,11.98
2022-11-03T01:53:46.335Z,11.90
2022-11-03T01:56:14.296Z,11.84
2022-11-03T01:58:43.009Z,11.79
2022-11-03T02:01:11.033Z,11.77
2022-11-03T02:03:43.745Z,11.70
2022-11-03T02:06:11.675Z,11.72
2022-11-03T02:08:44.454Z,11.72
2022-11-03T02:11:27.009Z,11.70
2022-11-03T02:13:54.960Z,11.71
2022-11-03T02:16:22.990Z,11.69
2022-11-03T02:18:50.948Z,11.66
2022-11-03T02:21:26.498Z,11.52
2022-11-03T02:23:58.495Z,11.63
2022-11-03T02:26:27.919Z,11.60
2022-11-03T02:28:55.899Z,11.55
2022-11-03T02:31:27.253Z,11.50
2022-11-03T02:33:56.576Z,11.47
2022-11-03T02:36:25.563Z,11.42
2022-11-03T02:38:57.213Z,11.38
2022-11-03T02:41:25.441Z,11.35
2022-11-03T02:43:55.169Z,11.32
2022-11-03T02:46:23.145Z,11.33
2022-11-03T02:48:51.113Z,11.30
2022-11-03T02:51:19.037Z,11.30
2022-11-03T02:53:50.048Z,11.29
2022-11-03T02:56:19.318Z,11.23
2022-11-03T02:58:50.736Z,11.18
2022-11-03T03:01:22.161Z,11.15
2022-11-03T03:03:51.543Z,11.10
2022-11-03T03:06:20.908Z,10.95
2022-11-03T03:08:52.767Z,10.93
2022-11-03T03:11:37.501Z,11.02
2022-11-03T03:14:12.301Z,11.02
2022-11-03T03:16:49.971Z,10.81
2022-11-03T03:19:23.444Z,10.97
2022-11-03T03:21:52.393Z,10.95
2022-11-03T03:24:22.790Z,10.91
2022-11-03T03:26:50.775Z,10.89
2022-11-03T03:29:19.542Z,10.79
2022-11-03T03:31:51.115Z,10.85
2022-11-03T03:34:36.065Z,10.88
2022-11-03T03:37:04.554Z,10.79
2022-11-03T03:39:34.263Z,10.94
2022-11-03T03:42:02.300Z,10.91
2022-11-03T03:44:30.283Z,10.92
2022-11-03T03:47:01.705Z,10.90
2022-11-03T03:49:29.678Z,10.90
2022-11-03T03:51:57.628Z,10.86
2022-11-03T03:54:25.597Z,10.83
2022-11-03T03:56:55.676Z,10.74
2022-11-03T03:59:23.638Z,10.79
2022-11-03T04:01:51.719Z,10.74
2022-11-03T04:04:21.139Z,10.73
2022-11-03T04:06:49.109Z,10.69
2022-11-03T04:09:17.072Z,10.64
2022-11-03T04:12:02.273Z,10.60
2022-11-03T04:14:47.459Z,10.55
2022-11-03T04:17:36.896Z,10.52
2022-11-03T04:20:27.770Z,10.53
2022-11-03T04:22:55.738Z,10.52
2022-11-03T04:25:23.669Z,10.51
2022-11-03T04:27:51.593Z,10.50
2022-11-03T04:30:20.350Z,10.48
2022-11-03T04:32:49.894Z,10.47
2022-11-03T04:35:20.628Z,10.46
2022-11-03T04:37:51.979Z,10.44
2022-11-03T04:40:20.096Z,10.21
2022-11-03T04:42:48.475Z,10.37
2022-11-03T04:45:23.602Z,10.37
2022-11-03T04:47:51.786Z,10.31
2022-11-03T04:50:23.138Z,10.25
2022-11-03T04:52:55.324Z,10.17
2022-11-03T04:55:23.279Z,10.25
2022-11-03T04:57:51.696Z,10.19
2022-11-03T05:00:20.404Z,10.13
2022-11-03T05:02:53.157Z,10.11
2022-11-03T05:05:25.941Z,10.01
2022-11-03T05:07:54.744Z,10.03
2022-11-03T05:10:24.857Z,10.12
2022-11-03T05:12:52.853Z,10.18
2022-11-03T05:15:31.471Z,10.23
2022-11-03T05:18:00.773Z,10.39
2022-11-03T05:20:36.055Z,10.52
2022-11-03T05:23:05.115Z,10.66
2022-11-03T05:25:37.380Z,10.81
2022-11-03T05:28:07.097Z,11.00
2022-11-03T05:30:35.209Z,11.19
2022-11-03T05:33:03.403Z,11.36
2022-11-03T05:35:32.941Z,11.56
2022-11-03T05:38:00.902Z,11.73
2022-11-03T05:40:29.147Z,11.92
2022-11-03T05:42:58.452Z,12.13
2022-11-03T05:45:28.201Z,12.32
2022-11-03T05:47:56.800Z,12.52
2022-11-03T05:50:26.150Z,12.73
2022-11-03T05:52:55.910Z,12.92
2022-11-03T05:55:28.592Z,13.08
2022-11-03T05:57:57.362Z,13.04
2022-11-03T06:00:32.895Z,13.38
2022-11-03T06:03:01.002Z,13.48
2022-11-03T06:05:29.047Z,13.58
2022-11-03T06:08:00.784Z,13.71
2022-11-03T06:10:30.894Z,13.83
2022-11-03T06:13:03.990Z,14.00
2022-11-03T06:15:33.268Z,14.07
2022-11-03T06:18:01.472Z,14.29
2022-11-03T06:20:29.402Z,14.52
2022-11-03T06:22:58.819Z,14.76
2022-11-03T06:25:30.193Z,14.99
2022-11-03T06:28:00.881Z,15.18
2022-11-03T06:30:30.101Z,15.35
2022-11-03T06:33:00.033Z,15.54
2022-11-03T06:35:27.999Z,15.73
2022-11-03T06:37:58.905Z,15.86
2022-11-03T06:40:36.824Z,16.03
2022-11-03T06:43:20.324Z,16.17
2022-11-03T06:45:51.069Z,16.27
2022-11-03T06:48:26.078Z,16.33
2022-11-03T06:50:54.954Z,16.34
2022-11-03T06:53:26.257Z,16.37
2022-11-03T06:55:54.391Z,16.35
2022-11-03T06:58:32.692Z,16.35
2022-11-03T07:01:03.850Z,16.34
2022-11-03T07:03:33.520Z,16.37
2022-11-03T07:06:03.049Z,16.17
2022-11-03T07:08:33.429Z,16.21
2022-11-03T07:11:03.952Z,16.27
2022-11-03T07:13:33.624Z,16.34
2022-11-03T07:16:01.646Z,16.28
2022-11-03T07:18:31.870Z,16.16
2022-11-03T07:21:00.131Z,16.35
2022-11-03T07:23:30.291Z,16.38
2022-11-03T07:26:02.153Z,16.41
2022-11-03T07:28:33.617Z,16.58
2022-11-03T07:31:02.587Z,16.69
2022-11-03T07:33:31.438Z,16.94
2022-11-03T07:36:16.834Z,16.81
2022-11-03T07:38:45.998Z,16.74
2022-11-03T07:41:18.430Z,16.86
2022-11-03T07:43:49.476Z,17.06
2022-11-03T07:46:18.568Z,17.23
2022-11-03T07:48:47.509Z,17.33
2022-11-03T07:51:19.597Z,17.28
2022-11-03T07:53:47.775Z,17.53
2022-11-03T07:56:20.253Z,17.56
2022-11-03T07:58:48.416Z,17.71
2022-11-03T08:01:27.603Z,17.60
2022-11-03T08:03:57.754Z,17.75
2022-11-03T08:06:25.691Z,17.93
2022-11-03T08:08:53.658Z,18.07
2022-11-03T08:11:27.846Z,18.12
2022-11-03T08:13:57.571Z,18.14
2022-11-03T08:16:25.518Z,18.31
2022-11-03T08:18:53.593Z,18.40
2022-11-03T08:21:21.537Z,18.59
2022-11-03T08:23:49.471Z,18.71
2022-11-03T08:26:17.409Z,18.77
2022-11-03T08:28:46.751Z,18.89
2022-11-03T08:31:14.784Z,19.06
2022-11-03T08:33:42.713Z,19.07
2022-11-03T08:36:10.972Z,19.13
2022-11-03T08:38:38.954Z,19.22
2022-11-03T08:41:07.224Z,19.32
2022-11-03T08:43:35.160Z,19.47
2022-11-03T08:46:13.947Z,19.64
2022-11-03T08:48:43.635Z,19.78
2022-11-03T08:51:13.991Z,19.99
2022-11-03T08:53:43.159Z,20.16
2022-11-03T08:56:13.046Z,20.34
2022-11-03T08:58:43.412Z,20.55
2022-11-03T09:01:12.782Z,20.68
2022-11-03T09:03:40.920Z,20.80
2022-11-03T09:06:09.144Z,20.93
2022-11-03T09:11:25.080Z,21.08
2022-11-03T09:13:53.127Z,21.21
2022-11-03T09:16:22.479Z,21.31
2022-11-03T09:18:50.483Z,21.49
2022-11-03T09:21:18.495Z,21.72
2022-11-03T09:23:46.548Z,21.83
2022-11-03T09:26:14.510Z,21.90
2022-11-03T09:28:42.456Z,21.96
2022-11-03T09:31:10.410Z,22.07
2022-11-03T09:33:39.846Z,22.13
2022-11-03T09:36:08.377Z,22.21
2022-11-03T09:38:36.352Z,22.41
2022-11-03T09:41:09.790Z,22.51
2022-11-03T09:43:47.479Z,22.70
2022-11-03T09:46:16.031Z,22.79
2022-11-03T09:48:45.371Z,22.80
2022-11-03T09:51:22.727Z,22.85
2022-11-03T09:53:50.727Z,22.76
2022-11-03T09:56:19.339Z,22.64
2022-11-03T09:58:51.401Z,22.55
2022-11-03T10:01:22.284Z,22.90
2022-11-03T10:03:51.783Z,22.93
2022-11-03T10:06:21.400Z,22.90
2022-11-03T10:08:49.710Z,22.77
2022-11-03T10:11:17.652Z,22.82
2022-11-03T10:13:47.630Z,22.83
2022-11-03T10:16:16.916Z,22.71
2022-11-03T10:18:44.884Z,22.79
2022-11-03T10:21:16.453Z,23.08
2022-11-03T10:23:45.078Z,22.99
2022-11-03T10:26:13.821Z,22.91
2022-11-03T10:28:41.854Z,22.99
2022-11-03T10:31:19.881Z,23.38
2022-11-03T10:33:52.781Z,23.28
2022-11-03T10:36:26.413Z,23.63
2022-11-03T10:38:54.671Z,23.84
2022-11-03T10:41:23.447Z,24.27
2022-11-03T10:44:02.032Z,24.62
2022-11-03T10:46:48.952Z,24.67
2022-11-03T10:49:18.565Z,24.49
2022-11-03T10:51:49.472Z,24.39
2022-11-03T10:54:18.277Z,24.27
2022-11-03T10:56:47.019Z,24.62
2022-11-03T10:59:17.634Z,24.96
2022-11-03T11:01:45.859Z,24.84
2022-11-03T11:04:15.043Z,25.20
2022-11-03T11:06:43.062Z,25.63
2022-11-03T11:09:13.321Z,25.89
2022-11-03T11:11:41.283Z,26.08
2022-11-03T11:14:34.883Z,25.78
2022-11-03T11:17:03.086Z,25.20
2022-11-03T11:19:31.162Z,25.24
2022-11-03T11:22:03.924Z,25.36
2022-11-03T11:25:03.440Z,25.64
2022-11-03T11:28:00.499Z,25.62
2022-11-03T11:31:31.129Z,25.45
2022-11-03T11:34:35.842Z,25.70
2022-11-03T11:37:34.789Z,25.20
2022-11-03T11:40:05.136Z,24.63
2022-11-03T11:42:35.053Z,24.23
2022-11-03T11:45:06.581Z,23.83
2022-11-03T11:47:48.230Z,23.62
2022-11-03T11:50:37.088Z,23.42
2022-11-03T11:53:11.888Z,23.25
2022-11-03T11:55:46.081Z,23.02
2022-11-03T11:58:17.048Z,22.86
2022-11-03T12:00:55.262Z,22.83
2022-11-03T12:03:39.005Z,22.71
2022-11-03T12:06:07.406Z,22.67
2022-11-03T12:08:35.608Z,22.59
2022-11-03T12:11:08.509Z,22.47
2022-11-03T12:13:48.417Z,22.34
2022-11-03T12:16:32.243Z,22.23
2022-11-03T12:19:34.664Z,22.14
2022-11-03T12:22:02.699Z,22.13
2022-11-03T12:24:37.557Z,22.20
2022-11-03T12:27:37.025Z,22.18
2022-11-03T12:30:06.490Z,22.19
2022-11-03T12:32:35.458Z,22.23
2022-11-03T12:35:04.152Z,22.22
2022-11-03T12:37:32.149Z,22.25
2022-11-03T12:40:00.284Z,22.14
2022-11-03T12:42:29.663Z,22.16
2022-11-03T12:44:57.777Z,22.02
2022-11-03T12:47:25.699Z,21.81
2022-11-03T12:49:53.956Z,21.82
2022-11-03T12:52:22.205Z,21.67
2022-11-03T12:54:50.384Z,21.64
2022-11-03T12:57:18.303Z,21.53
2022-11-03T12:59:47.667Z,21.54
2022-11-03T13:02:15.782Z,21.46
2022-11-03T13:04:43.856Z,21.50
2022-11-03T13:07:11.816Z,21.45
2022-11-03T13:09:40.171Z,21.42
2022-11-03T13:12:30.072Z,21.31
2022-11-03T13:14:59.534Z,21.35
2022-11-03T13:17:35.738Z,21.32
2022-11-03T13:20:16.306Z,21.28
2022-11-03T13:22:44.674Z,21.24
2022-11-03T13:25:12.720Z,21.17
2022-11-03T13:27:40.729Z,21.09
2022-11-03T13:30:12.093Z,20.99
2022-11-03T13:32:40.084Z,20.92
2022-11-03T13:35:13.492Z,20.90
2022-11-03T13:37:41.993Z,20.73
2022-11-03T13:40:23.735Z,20.71
2022-11-03T13:42:58.990Z,20.61
2022-11-03T13:45:28.756Z,20.56
2022-11-03T13:48:52.460Z,20.53
2022-11-03T13:50:45.722Z,20.50
2022-11-03T13:56:06.816Z,20.48
2022-11-03T14:01:26.713Z,20.39
2022-11-03T14:06:43.005Z,20.21
2022-11-03T14:09:11.080Z,20.24
2022-11-03T14:11:56.218Z,20.23
2022-11-03T14:14:24.275Z,20.18
2022-11-03T14:16:53.709Z,20.12
2022-11-03T14:19:21.747Z,20.03
2022-11-03T14:21:49.952Z,19.95
2022-11-03T14:24:19.045Z,19.85
2022-11-03T14:26:47.025Z,19.75
2022-11-03T14:29:15.024Z,19.67
2022-11-03T14:31:43.019Z,19.59
2022-11-03T14:34:12.424Z,19.50
2022-11-03T14:36:40.454Z,19.43
2022-11-03T14:39:08.455Z,19.39
2022-11-03T14:41:53.771Z,19.30
2022-11-03T14:44:21.702Z,19.23
2022-11-03T14:46:49.676Z,19.13
2022-11-03T14:49:18.967Z,19.06
2022-11-03T14:51:47.033Z,18.93
2022-11-03T14:54:14.989Z,18.83
2022-11-03T14:56:42.922Z,18.74
2022-11-03T14:59:10.848Z,18.64
2022-11-03T15:01:39.136Z,18.55
2022-11-03T15:04:07.953Z,18.44
2022-11-03T15:06:37.286Z,18.35
2022-11-03T15:09:05.425Z,18.33
2022-11-03T15:11:33.388Z,18.30
2022-11-03T15:14:02.404Z,18.22
2022-11-03T15:16:30.319Z,18.23
2022-11-03T15:18:59.197Z,18.11
2022-11-03T15:21:28.171Z,18.00
2022-11-03T15:26:45.413Z,18.00
2022-11-03T15:29:13.546Z,17.88
2022-11-03T15:31:47.257Z,17.75
2022-11-03T15:34:15.718Z,17.66
2022-11-03T15:36:43.663Z,17.56
2022-11-03T15:39:13.384Z,17.36
2022-11-03T15:41:41.781Z,17.35
2022-11-03T15:44:10.073Z,17.23
2022-11-03T15:46:38.118Z,17.09
2022-11-03T15:49:06.085Z,16.78
2022-11-03T15:51:34.019Z,16.88
2022-11-03T15:54:02.527Z,16.79
2022-11-03T15:56:31.909Z,16.68
2022-11-03T15:58:59.905Z,16.57
2022-11-03T16:01:27.986Z,16.44
2022-11-03T16:03:56.050Z,16.34
2022-11-03T16:06:40.242Z,16.22
2022-11-03T16:09:11.963Z,16.17
2022-11-03T16:11:41.266Z,16.13
2022-11-03T16:14:09.201Z,16.09
2022-11-03T16:16:37.136Z,16.06
2022-11-03T16:19:05.076Z,16.06
2022-11-03T16:21:33.024Z,16.02
2022-11-03T16:24:00.939Z,15.99
2022-11-03T16:26:28.850Z,15.96
2022-11-03T16:28:58.196Z,15.89
2022-11-03T16:31:26.150Z,15.83
2022-11-03T16:33:54.106Z,15.79
2022-11-03T16:36:22.058Z,15.76
2022-11-03T16:38:49.986Z,15.71
2022-11-03T16:41:17.926Z,15.61
2022-11-03T16:43:47.056Z,15.54
2022-11-03T16:46:16.436Z,15.42
2022-11-03T16:48:44.474Z,15.35
2022-11-03T16:51:12.380Z,15.27
2022-11-03T16:53:40.298Z,15.21
2022-11-03T16:56:09.066Z,14.92
2022-11-03T16:58:37.766Z,15.06
2022-11-03T17:01:06.693Z,14.97
2022-11-03T17:03:36.883Z,14.91
2022-11-03T17:06:05.779Z,14.83
2022-11-03T17:11:37.180Z,14.72
2022-11-03T17:14:06.777Z,14.64
2022-11-03T17:16:35.583Z,14.53
2022-11-03T17:19:05.894Z,14.49
2022-11-03T17:21:34.532Z,14.43
2022-11-03T17:24:03.947Z,14.38
2022-11-03T17:26:42.863Z,14.35
2022-11-03T17:29:13.415Z,14.34
2022-11-03T17:31:41.398Z,14.38
2022-11-03T17:34:12.365Z,14.37
2022-11-03T17:36:40.361Z,14.36
2022-11-03T17:39:08.424Z,14.39
2022-11-03T17:41:36.773Z,14.41
2022-11-03T17:44:06.933Z,14.42
2022-11-03T17:46:34.910Z,14.35
2022-11-03T17:49:02.856Z,14.21
2022-11-03T17:51:32.186Z,14.16
2022-11-03T17:54:00.514Z,14.09
2022-11-03T17:56:30.493Z,14.03
2022-11-03T17:58:59.006Z,13.94
2022-11-03T18:01:27.866Z,13.86
2022-11-03T18:03:56.009Z,13.92
2022-11-03T18:06:24.044Z,13.94
2022-11-03T18:08:53.402Z,13.86
2022-11-03T18:11:45.101Z,13.87
2022-11-03T18:14:13.141Z,13.80
2022-11-03T18:16:41.486Z,13.73
2022-11-03T18:19:11.319Z,13.66
2022-11-03T18:21:39.257Z,13.66
2022-11-03T18:24:12.445Z,13.43
2022-11-03T18:26:40.483Z,13.57
2022-11-03T18:29:09.131Z,13.55
2022-11-03T18:31:38.706Z,13.45
2022-11-03T18:34:07.978Z,13.51
2022-11-03T18:36:35.959Z,13.57
2022-11-03T18:39:04.005Z,13.56
2022-11-03T18:41:40.512Z,13.56
2022-11-03T18:44:16.190Z,13.47
2022-11-03T18:46:44.229Z,13.45
2022-11-03T18:49:12.286Z,13.40
2022-11-03T18:51:40.390Z,13.05
2022-11-03T18:54:10.198Z,13.16
2022-11-03T18:56:39.776Z,13.02
2022-11-03T18:59:07.784Z,12.92
2022-11-03T19:01:36.483Z,12.89
2022-11-03T19:04:04.735Z,12.91
2022-11-03T19:06:32.758Z,12.88
2022-11-03T19:09:01.925Z,12.74
2022-11-03T19:11:29.944Z,12.76
2022-11-03T19:14:00.316Z,12.75
2022-11-03T19:16:28.303Z,12.76
2022-11-03T19:18:56.293Z,12.71
2022-11-03T19:21:25.051Z,12.75
2022-11-03T19:23:58.065Z,12.77
2022-11-03T19:26:29.400Z,12.76
2022-11-03T19:29:00.430Z,12.79
2022-11-03T19:31:31.394Z,12.84
2022-11-03T19:34:00.100Z,12.84
2022-11-03T19:36:28.326Z,12.88
2022-11-03T19:38:56.393Z,12.92
2022-11-03T19:41:41.884Z,12.93
2022-11-03T19:44:12.237Z,12.97
2022-11-03T19:46:40.286Z,12.84
2022-11-03T19:49:08.338Z,12.83
2022-11-03T19:51:38.850Z,12.85
2022-11-03T19:54:07.748Z,12.73
2022-11-03T19:56:35.733Z,12.76
2022-11-03T19:59:06.409Z,12.83
2022-11-03T20:01:36.068Z,12.85
2022-11-03T20:04:04.177Z,12.82
2022-11-03T20:06:34.101Z,12.83
2022-11-03T20:09:04.453Z,12.79
2022-11-03T20:11:32.445Z,12.54
2022-11-03T20:14:00.537Z,12.58
2022-11-03T20:16:29.966Z,12.58
2022-11-03T20:18:59.332Z,12.57
2022-11-03T20:21:34.017Z,12.49
2022-11-03T20:24:02.467Z,12.50
2022-11-03T20:26:30.884Z,12.56
2022-11-03T20:28:58.832Z,12.52
2022-11-03T20:31:26.813Z,12.52
2022-11-03T20:33:54.955Z,12.50
2022-11-03T20:36:24.281Z,12.43
2022-11-03T20:38:53.073Z,12.37
2022-11-03T20:41:21.109Z,12.35
2022-11-03T20:43:49.770Z,12.43
2022-11-03T20:46:25.401Z,12.28
2022-11-03T20:48:55.312Z,12.29
2022-11-03T20:51:25.612Z,12.20
2022-11-03T20:53:53.633Z,12.11
2022-11-03T20:56:23.135Z,12.06
2022-11-03T20:58:51.294Z,12.12
2022-11-03T21:01:20.250Z,12.01
2022-11-03T21:04:03.598Z,11.97
2022-11-03T21:06:33.528Z,11.93
2022-11-03T21:09:01.955Z,11.91
2022-11-03T21:11:31.127Z,11.91
2022-11-03T21:14:00.294Z,11.92
2022-11-03T21:16:46.603Z,11.99
2022-11-03T21:19:33.759Z,11.82
2022-11-03T21:22:03.126Z,11.79
2022-11-03T21:24:31.107Z,11.78
2022-11-03T21:26:59.069Z,11.80
2022-11-03T21:29:53.261Z,11.79
2022-11-03T21:32:15.874Z,11.84
2022-11-03T21:34:44.095Z,11.75
2022-11-03T21:37:13.855Z,11.68
2022-11-03T21:39:41.857Z,11.62
2022-11-03T21:42:27.531Z,11.63
2022-11-03T21:44:55.480Z,11.60
2022-11-03T21:47:23.482Z,11.56
2022-11-03T21:49:50.497Z,11.56
2022-11-03T21:52:31.844Z,11.49
2022-11-03T21:55:00.499Z,11.49
2022-11-03T21:57:28.745Z,11.43
2022-11-03T21:59:58.687Z,11.42
2022-11-03T22:02:26.784Z,11.42
2022-11-03T22:04:55.616Z,11.37
2022-11-03T22:07:24.932Z,11.39
2022-11-03T22:09:52.898Z,11.30
2022-11-03T22:12:20.853Z,11.22
2022-11-03T22:15:06.450Z,11.09
2022-11-03T22:17:34.433Z,11.17
2022-11-03T22:20:19.822Z,11.15
2022-11-03T22:23:06.789Z,11.17
2022-11-03T22:25:52.215Z,11.13
2022-11-03T22:28:20.520Z,11.07
2022-11-03T22:31:06.080Z,11.11
2022-11-03T22:33:54.894Z,11.10
2022-11-03T22:36:24.799Z,11.07
2022-11-03T22:39:11.612Z,11.07
2022-11-03T22:41:59.589Z,11.07
2022-11-03T22:44:47.236Z,10.94
2022-11-03T22:47:18.545Z,10.92
2022-11-03T22:49:46.969Z,10.92
2022-11-03T22:52:14.964Z,10.86
2022-11-03T22:54:43.308Z,10.84
2022-11-03T22:57:11.418Z,10.80
2022-11-03T22:59:39.454Z,10.79
2022-11-03T23:02:07.536Z,10.75
2022-11-03T23:04:35.687Z,10.73
2022-11-03T23:07:03.671Z,10.67
2022-11-03T23:09:31.742Z,10.74
2022-11-03T23:12:01.145Z,10.75
2022-11-03T23:14:49.801Z,10.75
2022-11-03T23:17:17.770Z,10.79
2022-11-03T23:20:03.017Z,10.79
2022-11-03T23:22:30.967Z,10.80
2022-11-03T23:25:00.490Z,10.84
2022-11-03T23:27:30.035Z,10.86
2022-11-03T23:29:57.996Z,10.73
2022-11-03T23:32:25.953Z,10.78
2022-11-03T23:34:53.904Z,10.74
2022-11-03T23:37:21.876Z,10.65
2022-11-03T23:39:49.879Z,10.62
2022-11-03T23:42:17.848Z,10.64
2022-11-03T23:45:04.865Z,10.60
2022-11-03T23:47:50.134Z,10.38
2022-11-03T23:50:18.108Z,10.34
2022-11-03T23:52:46.081Z,10.28
2022-11-03T23:55:14.054Z,10.25
2022-11-03T23:57:59.601Z,10.29
